Klondike, Texas
Current Conditions -  °F | °C
As of 3:15 AM on Thursday 27 Nov 2014 (Local Time) from KSLR Reporting Station
Clear Clear  
Wind Chill: 36°   Ceiling: Unl
Heat Index: 43°   Visibility: 10mi
Dew Point: 28°   Wind: 14mph
Humidity: 56%   Direction: 10°N
Pressure: 30.48"   Gusts: 18mph
Location:  33.33°N, 95.76°W
Report Text: KSLR 270915Z AUTO 01012G16KT 10SM CLR 06/M02 A3048 RMK AO2 T00631020
Loading
Personal Weather Stations






























Interactive Weather Map New forecast layout! Learn more

10-Day Weather Forecast

Advertisements
Track Severe Weather on mobile